Airport Name : Usak

Other Name : Usak

ICAO : LTBO

IATA : USQ

FAA :

Latitude : 38.681478

Longitude : 29.471675

Country : Türkiye

Local Date and Time : 29 Feb 2024 02:38

 

TAF (Terminal Aerodrome Forecast)

TAF LTBO 281340Z 2815/2824 VRB02KT 9999 FEW040 BKN200 BECMG 2815/2818 CAVOK

 

METAR (METeorological Aerodrome Report)